Time;durP1;ratioP1;P1;durP2;ratioP2;P2;SDS_P1;SDS_P2;PMS_P1;PMS_P2;Temp;Humidity;BMP_temperature;BMP_pressure;BME280_temperature;BME280_humidity;BME280_pressure;Samples;Min_cycle;Max_cycle;Signal;HPM_P1;HPM_P2
2022/05/19 00:00:01;;;;;;;12.23;6.75;;;16.10;99.90;;;;;;5024116;28;20048;-76
2022/05/19 00:02:26;;;;;;;14.25;7.78;;;16.00;99.90;;;;;;5024058;28;20081;-76
2022/05/19 00:04:52;;;;;;;9.98;7.63;;;16.00;99.90;;;;;;5022592;28;20077;-75
2022/05/19 00:07:18;;;;;;;9.48;7.03;;;16.00;99.90;;;;;;5023393;28;20040;-76
2022/05/19 00:09:44;;;;;;;9.35;6.38;;;15.90;99.90;;;;;;5023486;28;20104;-76
2022/05/19 00:12:14;;;;;;;8.63;6.78;;;15.90;99.90;;;;;;5023389;28;20041;-76
2022/05/19 00:14:40;;;;;;;13.43;7.68;;;15.90;99.90;;;;;;5023460;28;20103;-76
2022/05/19 00:17:06;;;;;;;19.88;7.65;;;15.90;99.90;;;;;;5023331;28;20037;-76
2022/05/19 00:19:31;;;;;;;13.88;7.90;;;15.80;99.90;;;;;;5022551;28;20124;-76
2022/05/19 00:21:57;;;;;;;11.88;6.85;;;15.80;99.90;;;;;;5039093;28;20033;-76
2022/05/19 00:24:23;;;;;;;11.48;7.80;;;15.80;99.90;;;;;;5023004;28;20084;-76
2022/05/19 00:26:49;;;;;;;9.95;7.88;;;15.80;99.90;;;;;;5023526;28;20057;-76
2022/05/19 00:29:16;;;;;;;15.80;8.57;;;15.70;99.90;;;;;;5023153;28;20049;-76
2022/05/19 00:31:42;;;;;;;10.95;7.55;;;15.70;99.90;;;;;;5023401;28;20133;-76
2022/05/19 00:34:08;;;;;;;12.48;6.95;;;15.70;99.90;;;;;;5020614;28;20128;-76
2022/05/19 00:36:34;;;;;;;12.27;8.40;;;15.70;99.90;;;;;;5005977;28;20396;-76
2022/05/19 00:39:00;;;;;;;17.00;8.98;;;15.70;99.90;;;;;;5026001;28;20167;-76
2022/05/19 00:41:26;;;;;;;11.13;7.78;;;15.60;99.90;;;;;;5042882;28;20125;-76
2022/05/19 00:44:02;;;;;;;16.33;8.07;;;15.60;99.90;;;;;;5027029;28;20053;-76
2022/05/19 00:46:56;;;;;;;13.00;8.18;;;15.70;99.90;;;;;;5026368;28;20045;-76
2022/05/19 00:49:35;;;;;;;16.95;8.23;;;15.60;99.90;;;;;;5024134;28;20099;-75
2022/05/19 00:52:12;;;;;;;9.82;7.30;;;15.60;99.90;;;;;;5025739;28;20128;-76
2022/05/19 00:54:44;;;;;;;10.20;7.40;;;15.60;99.90;;;;;;5026322;28;20053;-76
2022/05/19 00:57:19;;;;;;;;;;;15.50;99.90;;;;;;5026126;28;20045;-76
2022/05/19 00:59:50;;;;;;;9.90;7.47;;;15.50;99.90;;;;;;5026710;28;20322;-76
2022/05/19 01:02:21;;;;;;;8.68;7.78;;;15.50;99.90;;;;;;5026559;28;20045;-76
2022/05/19 01:04:52;;;;;;;8.43;7.63;;;15.50;99.90;;;;;;5025537;28;20041;-76
2022/05/19 01:07:25;;;;;;;8.80;7.00;;;15.40;99.90;;;;;;5026580;28;20049;-76
2022/05/19 01:09:54;;;;;;;9.43;7.40;;;15.40;99.90;;;;;;5025312;28;20274;-76
2022/05/19 01:12:21;;;;;;;14.00;9.13;;;15.40;99.90;;;;;;5026638;28;20100;-76
2022/05/19 01:14:47;;;;;;;9.23;8.13;;;15.40;99.90;;;;;;5026257;28;20050;-75
2022/05/19 01:17:12;;;;;;;12.70;8.23;;;15.40;99.90;;;;;;5024862;28;20052;-76
2022/05/19 01:19:44;;;;;;;11.13;7.38;;;15.40;99.90;;;;;;5007600;28;20396;-76
2022/05/19 01:22:45;;;;;;;14.82;9.55;;;15.40;99.90;;;;;;5024702;28;20498;-76
2022/05/19 01:25:31;;;;;;;12.10;9.02;;;15.40;99.90;;;;;;5025826;28;20455;-76
2022/05/19 01:27:57;;;;;;;13.88;9.15;;;15.40;99.90;;;;;;5026657;28;20466;-76
2022/05/19 01:30:23;;;;;;;18.35;8.15;;;15.40;99.90;;;;;;5025960;28;20053;-76
2022/05/19 01:32:49;;;;;;;11.57;8.75;;;15.40;99.90;;;;;;5025187;28;20041;-76
2022/05/19 01:35:14;;;;;;;16.90;8.73;;;15.40;99.90;;;;;;5023634;28;20049;-76
2022/05/19 01:37:40;;;;;;;15.88;9.32;;;15.40;99.90;;;;;;5026046;28;20123;-76
2022/05/19 01:40:27;;;;;;;10.65;8.63;;;15.40;99.90;;;;;;5025840;28;20369;-77
2022/05/19 01:42:58;;;;;;;16.10;9.15;;;15.40;99.90;;;;;;5024715;28;20060;-76
2022/05/19 01:45:56;;;;;;;14.18;8.75;;;15.40;99.90;;;;;;5025921;28;20033;-76
2022/05/19 01:48:34;;;;;;;21.65;7.97;;;15.40;99.90;;;;;;5000095;28;20053;-76
2022/05/19 01:51:10;;;;;;;15.68;9.90;;;15.40;99.90;;;;;;5003838;28;20042;-76
2022/05/19 01:53:48;;;;;;;14.15;8.55;;;15.30;99.90;;;;;;5006097;28;20045;-76
2022/05/19 01:56:33;;;;;;;13.07;9.35;;;15.30;99.90;;;;;;5020002;28;20045;-76
2022/05/19 01:59:33;;;;;;;11.40;8.23;;;15.40;99.90;;;;;;5008544;28;20053;-76
2022/05/19 02:02:13;;;;;;;15.48;8.20;;;15.40;99.90;;;;;;5024253;28;20054;-75
2022/05/19 02:04:47;;;;;;;10.27;9.07;;;15.40;99.90;;;;;;5023293;28;20055;-76
2022/05/19 02:07:16;;;;;;;12.13;8.30;;;15.40;99.90;;;;;;5040843;28;20045;-76
2022/05/19 02:09:51;;;;;;;12.90;9.63;;;15.40;99.90;;;;;;5024070;28;20091;-76
2022/05/19 02:12:17;;;;;;;16.23;9.98;;;15.40;99.90;;;;;;5025090;28;20055;-76
2022/05/19 02:14:52;;;;;;;22.05;9.80;;;15.40;99.90;;;;;;5025417;28;20057;-76
2022/05/19 02:17:20;;;;;;;12.10;10.15;;;15.40;99.90;;;;;;5024872;28;20048;-76
2022/05/19 02:19:50;;;;;;;12.55;8.82;;;15.40;99.90;;;;;;5024479;28;20045;-76
2022/05/19 02:22:18;;;;;;;16.42;10.07;;;15.40;99.90;;;;;;5024913;28;20539;-76
2022/05/19 02:24:50;;;;;;;18.77;10.52;;;15.40;99.90;;;;;;5025358;28;20141;-76
2022/05/19 02:27:25;;;;;;;19.65;10.60;;;15.40;99.90;;;;;;5025128;28;20131;-76
2022/05/19 02:29:52;;;;;;;17.63;9.55;;;15.50;99.90;;;;;;5025379;28;20081;-76
2022/05/19 02:32:17;;;;;;;19.60;9.80;;;15.50;99.90;;;;;;5006748;28;20051;-76
2022/05/19 02:34:43;;;;;;;18.13;11.90;;;15.50;99.90;;;;;;5024119;28;20034;-76
2022/05/19 02:37:08;;;;;;;15.38;10.10;;;15.50;99.90;;;;;;5024675;28;20045;-76
2022/05/19 02:39:34;;;;;;;19.40;11.45;;;15.50;99.90;;;;;;5024130;28;20050;-76
2022/05/19 02:41:59;;;;;;;16.60;10.93;;;15.50;99.90;;;;;;5023695;28;20049;-76
2022/05/19 02:44:25;;;;;;;16.50;11.30;;;15.50;99.90;;;;;;5006982;28;20045;-76
2022/05/19 02:46:51;;;;;;;19.77;12.18;;;15.50;99.90;;;;;;5014456;28;20381;-76
2022/05/19 02:49:23;;;;;;;21.00;11.70;;;15.50;99.90;;;;;;5023522;28;20092;-76
2022/05/19 02:51:48;;;;;;;11.23;10.05;;;15.50;99.90;;;;;;5024799;28;20045;-76
2022/05/19 02:54:20;;;;;;;22.15;13.13;;;15.60;99.90;;;;;;5024133;28;20049;-76
2022/05/19 02:56:46;;;;;;;21.13;12.52;;;15.60;99.90;;;;;;5024729;28;20072;-76
2022/05/19 02:59:12;;;;;;;19.95;11.68;;;15.60;99.90;;;;;;5024619;28;20037;-76
2022/05/19 03:01:37;;;;;;;15.30;10.70;;;15.60;99.90;;;;;;5023863;28;20034;-76
2022/05/19 03:04:03;;;;;;;14.23;11.75;;;15.60;99.90;;;;;;5023416;28;20073;-75
2022/05/19 03:06:28;;;;;;;16.48;12.45;;;15.60;99.90;;;;;;5023194;28;20064;-75
2022/05/19 03:08:54;;;;;;;16.90;10.55;;;15.60;99.90;;;;;;5024645;28;20409;-76
2022/05/19 03:11:19;;;;;;;17.65;12.00;;;15.70;99.90;;;;;;5022619;28;20050;-76
2022/05/19 03:13:45;;;;;;;25.17;13.88;;;15.70;99.90;;;;;;5024532;28;20048;-76
2022/05/19 03:16:11;;;;;;;19.15;11.90;;;15.70;99.90;;;;;;5002878;28;20069;-76
2022/05/19 03:18:36;;;;;;;18.83;11.98;;;15.70;99.90;;;;;;5003541;28;20121;-76
2022/05/19 03:21:02;;;;;;;23.92;11.63;;;15.70;99.90;;;;;;5002735;28;20056;-76
2022/05/19 03:23:27;;;;;;;14.57;10.98;;;15.70;99.90;;;;;;5004872;28;20492;-76
2022/05/19 03:25:56;;;;;;;15.07;10.73;;;15.70;99.90;;;;;;5002928;28;20046;-76
2022/05/19 03:28:22;;;;;;;14.93;12.75;;;15.70;99.90;;;;;;5004308;28;20037;-76
2022/05/19 03:30:48;;;;;;;13.88;11.35;;;15.70;99.90;;;;;;5009835;28;20056;-76
2022/05/19 03:33:13;;;;;;;20.33;11.32;;;15.80;99.90;;;;;;5021426;28;20042;-76
2022/05/19 03:35:40;;;;;;;16.65;12.23;;;15.80;99.90;;;;;;5024230;28;20219;-76
2022/05/19 03:38:06;;;;;;;13.88;11.05;;;15.80;99.90;;;;;;5023569;28;20080;-76
2022/05/19 03:40:32;;;;;;;16.17;11.05;;;15.80;99.90;;;;;;5023912;28;20030;-76
2022/05/19 03:42:58;;;;;;;17.92;10.90;;;15.80;99.90;;;;;;5024016;28;20047;-76
2022/05/19 03:45:24;;;;;;;19.77;12.90;;;15.80;99.90;;;;;;5023886;28;20046;-76
2022/05/19 03:47:50;;;;;;;22.35;13.18;;;15.80;99.90;;;;;;5004563;28;20042;-76
2022/05/19 03:50:16;;;;;;;19.42;11.68;;;15.80;99.90;;;;;;5005637;28;20411;-76
2022/05/19 03:52:42;;;;;;;22.45;13.20;;;15.80;99.90;;;;;;5005738;28;20045;-76
2022/05/19 03:55:11;;;;;;;21.25;12.40;;;15.80;99.90;;;;;;5023839;28;20048;-76
2022/05/19 03:57:37;;;;;;;18.58;13.98;;;15.80;99.90;;;;;;5022436;28;20081;-76
2022/05/19 04:00:04;;;;;;;17.52;12.90;;;15.80;99.90;;;;;;5023279;28;20088;-76
2022/05/19 04:02:30;;;;;;;17.55;12.55;;;15.80;99.90;;;;;;5024201;28;20085;-75
2022/05/19 04:04:55;;;;;;;18.83;13.38;;;15.80;99.90;;;;;;5021635;28;20126;-76
2022/05/19 04:07:21;;;;;;;18.60;12.43;;;15.80;99.90;;;;;;5022329;28;20052;-76
2022/05/19 04:09:46;;;;;;;20.45;14.20;;;15.80;99.90;;;;;;5019944;28;20565;-76
2022/05/19 04:12:12;;;;;;;18.88;14.00;;;15.80;99.90;;;;;;5003944;28;20050;-76
2022/05/19 04:14:38;;;;;;;16.83;12.50;;;15.80;99.90;;;;;;5006910;28;20054;-76
2022/05/19 04:17:03;;;;;;;19.88;14.35;;;15.90;99.90;;;;;;5007674;28;20107;-77
2022/05/19 04:19:29;;;;;;;16.25;11.73;;;15.80;99.90;;;;;;5014625;28;20042;-76
2022/05/19 04:21:55;;;;;;;22.05;13.68;;;15.90;99.90;;;;;;5027564;28;20053;-76
2022/05/19 04:24:20;;;;;;;21.88;13.25;;;15.90;99.90;;;;;;5027058;28;20049;-76
2022/05/19 04:26:46;;;;;;;26.77;13.02;;;15.90;99.90;;;;;;5027629;28;20073;-76
2022/05/19 04:29:11;;;;;;;20.45;13.75;;;15.90;99.90;;;;;;5026589;28;20076;-77
2022/05/19 04:31:37;;;;;;;21.50;14.45;;;15.90;99.90;;;;;;5027751;28;20547;-77
2022/05/19 04:34:05;;;;;;;15.18;12.32;;;15.90;99.90;;;;;;5025953;28;20443;-76
2022/05/19 04:36:30;;;;;;;18.65;13.43;;;15.90;99.90;;;;;;5027708;28;20045;-79
2022/05/19 04:38:56;;;;;;;18.23;13.93;;;15.90;99.90;;;;;;5027677;28;20554;-76
2022/05/19 04:41:21;;;;;;;18.52;13.73;;;15.90;99.90;;;;;;5025407;28;20128;-76
2022/05/19 04:43:47;;;;;;;24.98;14.30;;;15.90;99.90;;;;;;5027077;28;20042;-77
2022/05/19 04:46:12;;;;;;;19.00;12.90;;;16.00;99.90;;;;;;5027031;28;20095;-77
2022/05/19 04:48:38;;;;;;;15.63;12.23;;;16.00;99.90;;;;;;5022883;28;20044;-80
2022/05/19 04:51:04;;;;;;;26.45;13.77;;;16.00;99.90;;;;;;5024856;28;20065;-86
2022/05/19 04:53:30;;;;;;;20.02;13.30;;;16.00;99.90;;;;;;5025857;28;20045;-80
2022/05/19 04:55:56;;;;;;;22.17;13.73;;;16.00;99.90;;;;;;5025536;28;20052;-80
2022/05/19 04:58:22;;;;;;;22.70;14.05;;;16.00;99.90;;;;;;5025913;28;20041;-80
2022/05/19 05:00:49;;;;;;;22.45;14.18;;;16.00;99.90;;;;;;5026959;28;20094;-80
2022/05/19 05:03:14;;;;;;;20.88;13.88;;;16.10;99.90;;;;;;5025693;28;20041;-80
2022/05/19 05:05:40;;;;;;;23.58;15.07;;;16.10;99.90;;;;;;5027027;28;20048;-80
2022/05/19 05:08:06;;;;;;;20.40;13.55;;;16.10;99.90;;;;;;5024875;28;20050;-80
2022/05/19 05:10:32;;;;;;;17.10;13.55;;;16.10;99.90;;;;;;5026506;28;20499;-80
2022/05/19 05:13:04;;;;;;;21.60;12.55;;;16.10;99.90;;;;;;5025466;28;20114;-80
2022/05/19 05:15:30;;;;;;;15.70;13.75;;;16.10;99.90;;;;;;5027017;28;20057;-80
2022/05/19 05:17:56;;;;;;;22.65;12.77;;;16.20;99.90;;;;;;5024997;28;20226;-80
2022/05/19 05:20:22;;;;;;;20.05;12.98;;;16.20;99.90;;;;;;5025186;28;20124;-80
2022/05/19 05:22:47;;;;;;;19.70;11.73;;;16.20;99.90;;;;;;5021684;28;20052;-80
2022/05/19 05:25:14;;;;;;;20.67;13.52;;;16.20;99.90;;;;;;5010180;28;20084;-80
2022/05/19 05:27:40;;;;;;;20.60;12.32;;;16.20;99.90;;;;;;5022290;28;20068;-80
2022/05/19 05:30:08;;;;;;;18.13;11.65;;;16.20;99.90;;;;;;5026122;28;20125;-80
2022/05/19 05:32:34;;;;;;;17.52;13.25;;;16.20;99.90;;;;;;5024134;28;20502;-80
2022/05/19 05:34:59;;;;;;;16.17;12.40;;;16.30;99.90;;;;;;5024751;28;20045;-80
2022/05/19 05:37:25;;;;;;;19.17;12.30;;;16.30;99.90;;;;;;5025926;28;20092;-80
2022/05/19 05:39:51;;;;;;;21.27;14.27;;;16.30;99.90;;;;;;5024807;28;20064;-80
2022/05/19 05:42:17;;;;;;;19.88;13.48;;;16.30;99.90;;;;;;5025171;28;20117;-82
2022/05/19 05:44:42;;;;;;;24.50;14.23;;;16.30;99.90;;;;;;5010573;28;20073;-80
2022/05/19 05:47:08;;;;;;;21.95;15.38;;;16.30;99.90;;;;;;5018958;28;20395;-80
2022/05/19 05:49:34;;;;;;;28.50;16.05;;;16.40;99.90;;;;;;5023576;28;20048;-79
2022/05/19 05:52:00;;;;;;;25.20;15.43;;;16.40;99.90;;;;;;5008741;28;20037;-80
2022/05/19 05:54:25;;;;;;;24.75;14.40;;;16.40;99.90;;;;;;5014397;28;20045;-80
2022/05/19 05:56:52;;;;;;;27.60;16.17;;;16.40;99.90;;;;;;5021815;28;20053;-80
2022/05/19 05:59:18;;;;;;;22.17;15.45;;;16.40;99.90;;;;;;5019785;28;20045;-81
2022/05/19 06:01:43;;;;;;;28.55;16.10;;;16.50;99.90;;;;;;5025552;28;20042;-84
2022/05/19 06:04:09;;;;;;;28.20;17.42;;;16.50;99.90;;;;;;5023978;28;20045;-82
2022/05/19 06:06:34;;;;;;;19.27;14.88;;;16.50;99.90;;;;;;5007197;28;20038;-82
2022/05/19 06:09:00;;;;;;;28.15;16.73;;;16.50;99.90;;;;;;5024336;28;20091;-82
2022/05/19 06:11:26;;;;;;;25.95;16.92;;;16.50;99.90;;;;;;5025042;28;20042;-79
2022/05/19 06:13:52;;;;;;;28.42;18.00;;;16.50;99.90;;;;;;5024368;28;20037;-80
2022/05/19 06:16:18;;;;;;;24.23;17.75;;;16.50;99.90;;;;;;5024601;28;20052;-80
2022/05/19 06:18:44;;;;;;;29.50;18.83;;;16.50;99.90;;;;;;5023173;28;20037;-79
2022/05/19 06:21:09;;;;;;;23.45;17.30;;;16.50;99.90;;;;;;5014575;28;20044;-79
2022/05/19 06:23:38;;;;;;;29.30;18.70;;;16.50;99.90;;;;;;5020779;28;20096;-80
2022/05/19 06:26:04;;;;;;;32.45;21.35;;;16.50;99.90;;;;;;5022766;28;20037;-80
2022/05/19 06:28:30;;;;;;;36.10;19.88;;;16.50;99.90;;;;;;5017438;28;20030;-80
2022/05/19 06:30:56;;;;;;;28.45;19.60;;;16.60;99.90;;;;;;5006327;28;20042;-80
2022/05/19 06:33:22;;;;;;;33.28;21.17;;;16.60;99.90;;;;;;5023250;28;20050;-80
2022/05/19 06:35:48;;;;;;;33.10;22.40;;;16.60;99.90;;;;;;5019199;28;20077;-80
2022/05/19 06:38:14;;;;;;;32.38;22.33;;;16.60;99.90;;;;;;5016941;28;20069;-80
2022/05/19 06:40:41;;;;;;;35.00;22.08;;;16.60;99.90;;;;;;5023623;28;20471;-81
2022/05/19 06:43:13;;;;;;;35.00;23.17;;;16.60;99.90;;;;;;5019002;28;20041;-80
2022/05/19 06:45:39;;;;;;;35.97;23.67;;;16.60;99.90;;;;;;5037453;28;20507;-81
2022/05/19 06:48:06;;;;;;;36.47;21.15;;;16.70;99.90;;;;;;5012449;28;20041;-82
2022/05/19 06:50:33;;;;;;;32.75;21.10;;;16.70;99.90;;;;;;5024357;28;20446;-83
2022/05/19 06:53:03;;;;;;;35.45;19.17;;;16.70;99.90;;;;;;5024354;28;20047;-82
2022/05/19 06:55:30;;;;;;;34.70;20.27;;;16.70;99.90;;;;;;5021171;28;20037;-82
2022/05/19 06:57:56;;;;;;;27.20;16.52;;;16.70;99.90;;;;;;5024048;28;20048;-82
2022/05/19 07:00:24;;;;;;;24.83;15.43;;;16.80;99.90;;;;;;5005970;28;20045;-82
2022/05/19 07:02:53;;;;;;;28.88;14.25;;;16.70;99.90;;;;;;5022983;28;20474;-83
2022/05/19 07:05:22;;;;;;;22.35;15.07;;;16.70;99.90;;;;;;5021573;28;20065;-83
2022/05/19 07:07:47;;;;;;;26.73;14.80;;;16.80;99.90;;;;;;5022912;28;20496;-83
2022/05/19 07:10:18;;;;;;;17.20;12.60;;;16.70;99.90;;;;;;5023167;28;20119;-83
2022/05/19 07:12:44;;;;;;;21.92;14.50;;;16.70;99.90;;;;;;5023209;28;20318;-83
2022/05/19 07:15:12;;;;;;;20.65;15.05;;;16.80;99.90;;;;;;5021727;28;20096;-83
2022/05/19 07:17:38;;;;;;;29.02;12.95;;;16.80;99.90;;;;;;5023224;28;20053;-83
2022/05/19 07:22:49;;;;;;;25.10;11.75;;;16.90;99.90;;;;;;5023432;28;20135;-83
2022/05/19 07:25:15;;;;;;;24.58;13.02;;;16.90;99.90;;;;;;5023826;28;20116;-83
2022/05/19 07:27:41;;;;;;;19.10;11.63;;;16.90;99.90;;;;;;5023450;28;20037;-82
2022/05/19 07:30:07;;;;;;;15.23;9.75;;;16.90;99.90;;;;;;5022810;28;20088;-84
2022/05/19 07:32:33;;;;;;;13.30;9.43;;;16.90;99.90;;;;;;5021776;28;20532;-84
2022/05/19 07:34:59;;;;;;;30.20;11.60;;;17.00;99.90;;;;;;5023447;28;20080;-85
2022/05/19 07:37:25;;;;;;;19.42;11.07;;;17.00;99.90;;;;;;5021638;28;20046;-85
2022/05/19 07:39:54;;;;;;;27.15;10.48;;;17.00;99.90;;;;;;5021547;28;20041;-85
2022/05/19 07:42:20;;;;;;;25.73;10.80;;;17.00;99.90;;;;;;5022632;28;20132;-84
2022/05/19 07:44:46;;;;;;;14.10;10.93;;;17.00;99.90;;;;;;5021988;28;20049;-85
2022/05/19 07:47:14;;;;;;;18.63;11.93;;;17.10;99.90;;;;;;5007674;28;20523;-85
2022/05/19 07:49:40;;;;;;;20.77;14.48;;;17.10;99.90;;;;;;5001723;28;20158;-85
2022/05/19 07:52:07;;;;;;;17.52;12.43;;;17.10;99.90;;;;;;5003214;28;20117;-84
2022/05/19 07:54:33;;;;;;;23.73;12.77;;;17.10;99.90;;;;;;5001300;28;20042;-85
2022/05/19 07:56:59;;;;;;;26.45;13.85;;;17.10;99.90;;;;;;5003928;28;20118;-85
2022/05/19 07:59:26;;;;;;;24.27;13.75;;;17.10;99.90;;;;;;5001438;28;20408;-85
2022/05/19 08:01:53;;;;;;;16.60;12.68;;;17.10;99.90;;;;;;5003399;28;20042;-85
2022/05/19 08:04:23;;;;;;;27.90;14.93;;;17.10;99.90;;;;;;5002100;28;20042;-84
2022/05/19 08:06:49;;;;;;;23.92;15.68;;;17.10;99.90;;;;;;5002068;28;20042;-84
2022/05/19 08:12:00;;;;;;;30.85;15.38;;;17.20;99.90;;;;;;5003886;28;20042;-82
2022/05/19 08:17:11;;;;;;;19.73;15.35;;;17.20;99.90;;;;;;5001111;28;20456;-84
2022/05/19 08:19:37;;;;;;;29.60;16.67;;;17.30;99.90;;;;;;5003344;28;20438;-84
2022/05/19 08:22:04;;;;;;;21.38;16.98;;;17.30;99.90;;;;;;5001911;28;20050;-83
2022/05/19 08:24:30;;;;;;;24.08;17.60;;;17.30;99.90;;;;;;5003524;28;20409;-82
2022/05/19 08:26:56;;;;;;;28.00;17.85;;;17.30;99.90;;;;;;5003391;28;20038;-83
2022/05/19 08:29:22;;;;;;;22.73;15.43;;;17.30;99.90;;;;;;5001212;28;20137;-82
2022/05/19 08:31:48;;;;;;;24.25;15.20;;;17.40;99.90;;;;;;5015685;28;20124;-82
2022/05/19 08:34:14;;;;;;;24.73;18.23;;;17.40;99.90;;;;;;5019111;28;20045;-82
2022/05/19 08:36:41;;;;;;;22.77;16.17;;;17.40;99.90;;;;;;5021373;28;20033;-83
2022/05/19 08:39:07;;;;;;;30.45;16.17;;;17.40;99.90;;;;;;5021525;28;20072;-82
2022/05/19 08:41:38;;;;;;;27.63;16.35;;;17.40;99.90;;;;;;5017840;28;20404;-83
2022/05/19 08:44:24;;;;;;;22.00;16.70;;;17.50;99.90;;;;;;5005680;28;20034;-82
2022/05/19 08:46:52;;;;;;;32.65;18.52;;;17.50;99.90;;;;;;5008801;28;20116;-84
2022/05/19 08:49:42;;;;;;;21.20;16.25;;;17.50;99.90;;;;;;4994079;28;20042;-83
2022/05/19 08:52:20;;;;;;;22.08;14.75;;;17.50;99.90;;;;;;5013805;28;21133;-83
2022/05/19 08:54:48;;;;;;;21.55;14.55;;;17.50;99.90;;;;;;5012438;28;20257;-83
2022/05/19 08:57:32;;;;;;;21.60;16.00;;;17.50;99.90;;;;;;5010274;28;20053;-83
2022/05/19 09:00:19;;;;;;;26.67;15.75;;;17.50;99.90;;;;;;5013537;28;20045;-84
2022/05/19 09:02:54;;;;;;;22.88;14.00;;;17.60;99.90;;;;;;5030745;28;20064;-84
2022/05/19 09:05:53;;;;;;;20.27;14.07;;;17.60;99.90;;;;;;5013257;28;20041;-84
2022/05/19 09:09:13;;;;;;;24.33;16.23;;;17.70;99.90;;;;;;5012914;28;20073;-84
2022/05/19 09:11:50;;;;;;;34.75;17.05;;;17.70;99.90;;;;;;4958605;28;20519;-83
2022/05/19 09:14:26;;;;;;;29.60;15.10;;;17.80;99.90;;;;;;5012561;28;20079;-83
2022/05/19 09:16:59;;;;;;;23.33;15.25;;;17.80;99.90;;;;;;5013874;28;20308;-83
2022/05/19 09:19:34;;;;;;;28.52;16.00;;;17.80;99.90;;;;;;5014341;28;20244;-84
2022/05/19 09:22:07;;;;;;;25.60;16.00;;;17.90;99.90;;;;;;5032040;28;20419;-83
2022/05/19 09:24:33;;;;;;;26.02;17.40;;;17.90;99.90;;;;;;5016511;28;20389;-83
2022/05/19 09:27:00;;;;;;;25.75;16.52;;;17.90;99.90;;;;;;5014090;28;20567;-83
2022/05/19 09:29:36;;;;;;;43.30;18.15;;;17.90;99.90;;;;;;5014633;28;20037;-84
2022/05/19 09:32:16;;;;;;;33.00;18.02;;;18.00;99.90;;;;;;4995668;28;20037;-83
2022/05/19 09:34:51;;;;;;;34.30;20.40;;;18.00;99.90;;;;;;5015416;28;20080;-83
2022/05/19 09:37:43;;;;;;;31.92;17.30;;;18.10;99.90;;;;;;5015909;28;20029;-84
2022/05/19 09:40:12;;;;;;;29.33;19.05;;;18.20;99.90;;;;;;5015635;28;20388;-84
2022/05/19 09:43:03;;;;;;;21.83;16.80;;;18.20;99.90;;;;;;5021354;28;20038;-83
2022/05/19 09:45:29;;;;;;;27.02;15.95;;;18.30;99.90;;;;;;5024469;28;20116;-83
2022/05/19 09:48:03;;;;;;;23.98;15.50;;;18.30;99.90;;;;;;4988533;28;20068;-82
2022/05/19 09:50:35;;;;;;;19.83;15.52;;;18.30;99.90;;;;;;5005218;28;20042;-82
2022/05/19 09:53:04;;;;;;;24.63;15.30;;;18.40;99.90;;;;;;5020163;28;20566;-82
2022/05/19 09:55:31;;;;;;;22.98;16.15;;;18.40;99.90;;;;;;5006084;28;20137;-83
2022/05/19 09:58:02;;;;;;;25.75;15.68;;;18.50;99.90;;;;;;5006450;28;20034;-82
2022/05/19 10:00:43;;;;;;;24.88;16.15;;;18.50;99.90;;;;;;5004860;28;20073;-83
2022/05/19 10:03:16;;;;;;;21.55;15.40;;;18.50;99.90;;;;;;5004067;28;20088;-84
2022/05/19 10:05:42;;;;;;;31.10;18.13;;;18.60;99.90;;;;;;5005240;28;20042;-84
2022/05/19 10:08:39;;;;;;;31.75;18.20;;;18.60;99.90;;;;;;5019271;28;20048;-84
2022/05/19 10:11:12;;;;;;;31.13;18.40;;;18.70;99.90;;;;;;5002085;28;20053;-85
2022/05/19 10:13:48;;;;;;;32.95;17.80;;;18.80;99.90;;;;;;5025031;28;20117;-84
2022/05/19 10:16:50;;;;;;;30.13;17.30;;;18.80;99.90;;;;;;5023698;28;20056;-83
2022/05/19 10:19:33;;;;;;;28.35;18.00;;;18.90;99.90;;;;;;5024657;28;20092;-83
2022/05/19 10:22:31;;;;;;;28.10;16.58;;;19.00;99.90;;;;;;5025416;28;20051;-85
2022/05/19 10:25:08;;;;;;;25.45;17.83;;;19.00;99.90;;;;;;4993954;28;20034;-86
2022/05/19 10:31:04;;;;;;;22.33;15.95;;;19.00;99.90;;;;;;5021393;28;20045;-85
2022/05/19 10:33:51;;;;;;;19.63;15.38;;;19.10;99.90;;;;;;5024395;28;20054;-85
2022/05/19 10:36:50;;;;;;;25.60;16.63;;;19.10;99.90;;;;;;5023081;28;20395;-85
2022/05/19 10:39:35;;;;;;;19.65;17.25;;;19.10;99.90;;;;;;5023241;28;20049;-85
2022/05/19 10:42:13;;;;;;;22.75;15.27;;;19.20;99.90;;;;;;5023193;28;20085;-85
2022/05/19 10:44:57;;;;;;;21.08;16.27;;;19.30;99.90;;;;;;5025131;28;20126;-86
2022/05/19 10:47:41;;;;;;;17.85;15.52;;;19.40;99.90;;;;;;5005104;28;20045;-84
2022/05/19 10:50:18;;;;;;;20.95;15.38;;;19.40;99.90;;;;;;5018094;28;20092;-82
2022/05/19 10:53:09;;;;;;;20.45;14.27;;;19.40;99.90;;;;;;5017558;28;20620;-82
2022/05/19 10:55:56;;;;;;;16.85;12.25;;;19.50;99.90;;;;;;5021905;28;20037;-82
2022/05/19 10:58:49;;;;;;;18.38;11.88;;;19.60;99.90;;;;;;5020314;28;20137;-84
2022/05/19 11:01:49;;;;;;;14.70;10.93;;;19.60;99.90;;;;;;5023542;28;20045;-81
2022/05/19 11:04:42;;;;;;;14.48;10.65;;;19.70;99.90;;;;;;5011573;28;20046;-81
2022/05/19 11:07:25;;;;;;;;;;;19.70;99.90;;;;;;5023743;28;20128;-82
2022/05/19 11:10:16;;;;;;;12.80;9.52;;;19.80;99.90;;;;;;5038832;28;20018;-80
2022/05/19 11:13:09;;;;;;;15.82;10.05;;;19.80;99.90;;;;;;5017376;28;20049;-89
2022/05/19 11:15:42;;;;;;;14.75;10.60;;;19.90;99.90;;;;;;5003405;28;20053;-78
2022/05/19 11:18:17;;;;;;;13.85;9.95;;;19.90;99.90;;;;;;5020939;28;20785;-81
2022/05/19 11:21:04;;;;;;;11.77;10.57;;;19.90;99.90;;;;;;5016696;28;20507;-79
2022/05/19 11:23:50;;;;;;;13.55;10.45;;;20.00;99.90;;;;;;5018280;28;20092;-78
2022/05/19 11:26:26;;;;;;;15.43;10.82;;;20.00;99.90;;;;;;5017676;28;20389;-80
2022/05/19 11:29:17;;;;;;;11.70;8.15;;;20.00;99.90;;;;;;5019373;28;20055;-78
2022/05/19 11:32:04;;;;;;;7.53;5.75;;;20.00;99.90;;;;;;5011653;28;20091;-79
2022/05/19 11:34:35;;;;;;;8.23;7.05;;;19.90;99.90;;;;;;5022708;28;20045;-79
2022/05/19 11:37:26;;;;;;;11.70;7.28;;;19.90;99.90;;;;;;5022605;28;20056;-80
2022/05/19 11:40:14;;;;;;;13.18;8.10;;;19.80;99.90;;;;;;5023765;28;20046;-79
2022/05/19 11:42:54;;;;;;;10.27;7.65;;;19.80;99.90;;;;;;5022920;28;20041;-79
2022/05/19 11:45:33;;;;;;;9.60;8.48;;;19.80;99.90;;;;;;5023451;28;20300;-79
2022/05/19 11:56:32;;;;;;;11.13;9.25;;;19.60;99.90;;;;;;5012125;28;20091;-84
2022/05/19 11:58:57;;;;;;;13.77;9.02;;;19.50;99.90;;;;;;5015589;28;21582;-84
2022/05/19 12:01:35;;;;;;;10.00;8.57;;;19.50;99.90;;;;;;5011625;28;20044;-84
2022/05/19 12:04:12;;;;;;;11.90;9.52;;;19.40;99.90;;;;;;5011356;28;20048;-85
2022/05/19 12:06:53;;;;;;;15.73;9.57;;;19.40;99.90;;;;;;4996213;28;20053;-84
2022/05/19 12:09:25;;;;;;;12.10;9.52;;;19.30;99.90;;;;;;5015962;28;20049;-85
2022/05/19 12:12:02;;;;;;;16.63;10.10;;;19.30;99.90;;;;;;5006823;28;20110;-86
2022/05/19 12:14:42;;;;;;;16.50;10.20;;;19.20;99.90;;;;;;5023289;28;20045;-86
2022/05/19 12:17:31;;;;;;;11.43;8.70;;;19.20;99.90;;;;;;5032765;28;20041;-85
2022/05/19 12:20:02;;;;;;;14.43;8.90;;;19.10;99.90;;;;;;5006454;28;20045;-84
2022/05/19 12:22:35;;;;;;;11.63;6.93;;;19.00;99.90;;;;;;5013114;28;20076;-87
2022/05/19 12:25:01;;;;;;;11.23;6.50;;;18.90;99.90;;;;;;5012587;28;20439;-80
2022/05/19 12:27:38;;;;;;;8.80;4.22;;;18.80;99.90;;;;;;5018955;28;20040;-79
2022/05/19 12:33:15;;;;;;;3.45;3.15;;;18.60;99.90;;;;;;5011885;28;20550;-80
2022/05/19 12:35:43;;;;;;;4.65;4.05;;;18.40;99.90;;;;;;5003120;28;21242;-79
2022/05/19 12:38:29;;;;;;;5.22;3.88;;;18.40;99.90;;;;;;5030614;28;20042;-79
2022/05/19 12:40:57;;;;;;;4.13;3.58;;;18.30;99.90;;;;;;5016356;28;20042;-79
2022/05/19 12:43:24;;;;;;;3.03;2.72;;;18.30;99.90;;;;;;5018561;28;20042;-79
2022/05/19 12:46:01;;;;;;;4.85;3.40;;;18.30;99.90;;;;;;5024114;28;20111;-80
2022/05/19 12:48:32;;;;;;;5.20;3.33;;;18.20;99.90;;;;;;5011451;28;20158;-78
2022/05/19 12:51:11;;;;;;;4.15;3.28;;;18.20;99.90;;;;;;5021226;28;20049;-79
2022/05/19 12:53:52;;;;;;;7.65;3.85;;;18.20;99.90;;;;;;5019875;28;20064;-79
2022/05/19 12:56:46;;;;;;;5.75;3.45;;;18.10;99.90;;;;;;5025719;28;20052;-79
2022/05/19 12:59:50;;;;;;;3.42;2.90;;;18.10;99.90;;;;;;5013777;28;20304;-78
2022/05/19 13:02:25;;;;;;;8.32;3.95;;;18.10;99.90;;;;;;5020307;28;20048;-79
2022/05/19 13:04:57;;;;;;;4.22;3.35;;;18.10;99.90;;;;;;5023102;28;20046;-79
2022/05/19 13:07:39;;;;;;;5.78;3.67;;;18.10;99.90;;;;;;5014194;28;20044;-79
2022/05/19 13:10:07;;;;;;;6.32;4.10;;;18.00;99.90;;;;;;5018920;28;20056;-79
2022/05/19 13:13:02;;;;;;;5.85;4.47;;;18.00;99.90;;;;;;5015902;28;20057;-78
2022/05/19 13:15:33;;;;;;;5.88;4.43;;;18.00;99.90;;;;;;5018468;28;20045;-78